sensor_id;sensor_type;location;lat;lon;timestamp;pressure;altitude;pressure_sealevel;temperature;humidity
17593;BME280;8915;51.760;14.300;2023-02-13T00:01:36;102946.66;;;4.01;100.00
17593;BME280;8915;51.760;14.300;2023-02-13T00:04:03;102951.00;;;4.02;100.00
17593;BME280;8915;51.760;14.300;2023-02-13T00:06:29;102947.56;;;4.01;100.00
17593;BME280;8915;51.760;14.300;2023-02-13T00:08:56;102948.50;;;4.03;100.00
17593;BME280;8915;51.760;14.300;2023-02-13T00:11:23;102954.53;;;4.04;100.00
17593;BME280;8915;51.760;14.300;2023-02-13T00:13:50;102944.31;;;4.07;100.00
17593;BME280;8915;51.760;14.300;2023-02-13T00:16:16;102940.81;;;4.05;100.00
17593;BME280;8915;51.760;14.300;2023-02-13T00:18:42;102939.97;;;4.06;100.00
17593;BME280;8915;51.760;14.300;2023-02-13T00:21:11;102945.25;;;4.09;100.00
17593;BME280;8915;51.760;14.300;2023-02-13T00:23:38;102933.16;;;4.08;100.00
17593;BME280;8915;51.760;14.300;2023-02-13T00:26:31;102940.03;;;4.07;100.00
17593;BME280;8915;51.760;14.300;2023-02-13T00:29:02;102941.81;;;4.08;100.00
17593;BME280;8915;51.760;14.300;2023-02-13T00:31:28;102942.63;;;4.07;100.00
17593;BME280;8915;51.760;14.300;2023-02-13T00:33:54;102940.09;;;4.09;100.00
17593;BME280;8915;51.760;14.300;2023-02-13T00:36:21;102933.16;;;4.08;100.00
17593;BME280;8915;51.760;14.300;2023-02-13T00:38:49;102933.16;;;4.08;100.00
17593;BME280;8915;51.760;14.300;2023-02-13T00:41:16;102936.56;;;4.07;100.00
17593;BME280;8915;51.760;14.300;2023-02-13T00:43:44;102931.28;;;4.04;100.00
17593;BME280;8915;51.760;14.300;2023-02-13T00:46:11;102934.88;;;4.07;100.00
17593;BME280;8915;51.760;14.300;2023-02-13T00:48:38;102934.88;;;4.07;100.00
17593;BME280;8915;51.760;14.300;2023-02-13T00:51:06;102935.72;;;4.08;100.00
17593;BME280;8915;51.760;14.300;2023-02-13T00:53:32;102934.94;;;4.09;100.00
17593;BME280;8915;51.760;14.300;2023-02-13T00:55:59;102927.13;;;4.07;100.00
17593;BME280;8915;51.760;14.300;2023-02-13T00:58:31;102925.41;;;4.08;100.00
17593;BME280;8915;51.760;14.300;2023-02-13T01:00:59;102922.88;;;4.09;100.00
17593;BME280;8915;51.760;14.300;2023-02-13T01:03:25;102922.88;;;4.09;100.00
17593;BME280;8915;51.760;14.300;2023-02-13T01:05:52;102925.47;;;4.09;100.00
17593;BME280;8915;51.760;14.300;2023-02-13T01:08:19;102926.38;;;4.10;100.00
17593;BME280;8915;51.760;14.300;2023-02-13T01:10:47;102919.50;;;4.10;100.00
17593;BME280;8915;51.760;14.300;2023-02-13T01:13:15;102924.72;;;4.12;100.00
17593;BME280;8915;51.760;14.300;2023-02-13T01:15:43;102922.94;;;4.11;100.00
17593;BME280;8915;51.760;14.300;2023-02-13T01:18:11;102925.47;;;4.09;100.00
17593;BME280;8915;51.760;14.300;2023-02-13T01:20:38;102924.66;;;4.10;100.00
17593;BME280;8915;51.760;14.300;2023-02-13T01:23:04;102918.63;;;4.10;100.00
17593;BME280;8915;51.760;14.300;2023-02-13T01:25:30;102915.97;;;4.08;100.00
17593;BME280;8915;51.760;14.300;2023-02-13T01:27:57;102909.97;;;4.09;100.00
17593;BME280;8915;51.760;14.300;2023-02-13T01:30:23;102908.25;;;4.08;100.00
17593;BME280;8915;51.760;14.300;2023-02-13T01:32:50;102911.63;;;4.07;100.00
17593;BME280;8915;51.760;14.300;2023-02-13T01:35:18;102900.44;;;4.07;100.00
17593;BME280;8915;51.760;14.300;2023-02-13T01:37:45;102895.34;;;4.08;100.00
17593;BME280;8915;51.760;14.300;2023-02-13T01:40:13;102904.00;;;4.10;100.00
17593;BME280;8915;51.760;14.300;2023-02-13T01:42:41;102895.41;;;4.11;100.00
17593;BME280;8915;51.760;14.300;2023-02-13T01:45:21;102892.81;;;4.10;100.00
17593;BME280;8915;51.760;14.300;2023-02-13T01:47:50;102898.78;;;4.09;100.00
17593;BME280;8915;51.760;14.300;2023-02-13T01:50:28;102900.50;;;4.08;100.00
17593;BME280;8915;51.760;14.300;2023-02-13T01:52:59;102907.41;;;4.09;100.00
17593;BME280;8915;51.760;14.300;2023-02-13T01:55:29;102903.94;;;4.09;100.00
17593;BME280;8915;51.760;14.300;2023-02-13T01:58:01;102912.56;;;4.09;100.00
17593;BME280;8915;51.760;14.300;2023-02-13T02:00:30;102901.38;;;4.09;100.00
17593;BME280;8915;51.760;14.300;2023-02-13T02:03:01;102910.88;;;4.10;100.00
17593;BME280;8915;51.760;14.300;2023-02-13T02:05:33;102909.16;;;4.10;100.00
17593;BME280;8915;51.760;14.300;2023-02-13T02:08:02;102906.66;;;4.12;100.00
17593;BME280;8915;51.760;14.300;2023-02-13T02:10:30;102903.22;;;4.13;100.00
17593;BME280;8915;51.760;14.300;2023-02-13T02:13:02;102899.78;;;4.12;100.00
17593;BME280;8915;51.760;14.300;2023-02-13T02:15:33;102893.69;;;4.10;100.00
17593;BME280;8915;51.760;14.300;2023-02-13T02:17:59;102905.66;;;4.08;100.00
17593;BME280;8915;51.760;14.300;2023-02-13T02:20:49;102897.00;;;4.08;100.00
17593;BME280;8915;51.760;14.300;2023-02-13T02:23:46;102895.47;;;4.13;100.00
17593;BME280;8915;51.760;14.300;2023-02-13T02:26:37;102896.25;;;4.10;100.00
17593;BME280;8915;51.760;14.300;2023-02-13T02:29:39;102897.97;;;4.10;100.00
17593;BME280;8915;51.760;14.300;2023-02-13T02:32:26;102896.19;;;4.09;100.00
17593;BME280;8915;51.760;14.300;2023-02-13T02:35:08;102892.81;;;4.10;100.00
17593;BME280;8915;51.760;14.300;2023-02-13T02:37:54;102896.25;;;4.10;100.00
17593;BME280;8915;51.760;14.300;2023-02-13T02:40:29;102889.25;;;4.08;100.00
17593;BME280;8915;51.760;14.300;2023-02-13T02:43:12;102889.31;;;4.09;100.00
17593;BME280;8915;51.760;14.300;2023-02-13T02:45:46;102890.22;;;4.10;100.00
17593;BME280;8915;51.760;14.300;2023-02-13T02:48:22;102887.66;;;4.11;100.00
17593;BME280;8915;51.760;14.300;2023-02-13T02:51:21;102884.28;;;4.12;100.00
17593;BME280;8915;51.760;14.300;2023-02-13T02:54:00;102888.56;;;4.12;100.00
17593;BME280;8915;51.760;14.300;2023-02-13T02:56:51;102886.84;;;4.12;100.00
17593;BME280;8915;51.760;14.300;2023-02-13T02:59:24;102894.72;;;4.15;100.00
17593;BME280;8915;51.760;14.300;2023-02-13T03:02:11;102887.84;;;4.16;100.00
17593;BME280;8915;51.760;14.300;2023-02-13T03:04:58;102888.84;;;4.20;100.00
17593;BME280;8915;51.760;14.300;2023-02-13T03:07:43;102889.88;;;4.25;100.00
17593;BME280;8915;51.760;14.300;2023-02-13T03:10:12;102899.44;;;4.27;100.00
17593;BME280;8915;51.760;14.300;2023-02-13T03:13:00;102898.88;;;4.36;100.00
17593;BME280;8915;51.760;14.300;2023-02-13T03:15:47;102891.13;;;4.36;100.00
17593;BME280;8915;51.760;14.300;2023-02-13T03:18:35;102898.25;;;4.42;100.00
17593;BME280;8915;51.760;14.300;2023-02-13T03:21:31;102897.53;;;4.46;100.00
17593;BME280;8915;51.760;14.300;2023-02-13T03:24:24;102898.41;;;4.46;100.00
17593;BME280;8915;51.760;14.300;2023-02-13T03:26:56;102895.13;;;4.50;100.00
17593;BME280;8915;51.760;14.300;2023-02-13T03:29:38;102889.09;;;4.51;100.00
17593;BME280;8915;51.760;14.300;2023-02-13T03:32:32;102896.03;;;4.52;100.00
17593;BME280;8915;51.760;14.300;2023-02-13T03:35:11;102894.38;;;4.54;100.00
17593;BME280;8915;51.760;14.300;2023-02-13T03:38:04;102896.09;;;4.54;100.00
17593;BME280;8915;51.760;14.300;2023-02-13T03:40:36;102896.13;;;4.55;100.00
17593;BME280;8915;51.760;14.300;2023-02-13T03:43:28;102894.50;;;4.58;100.00
17593;BME280;8915;51.760;14.300;2023-02-13T03:45:57;102897.97;;;4.58;100.00
17593;BME280;8915;51.760;14.300;2023-02-13T03:48:29;102903.94;;;4.57;100.00
17593;BME280;8915;51.760;14.300;2023-02-13T03:51:18;102903.25;;;4.61;100.00
17593;BME280;8915;51.760;14.300;2023-02-13T03:53:51;102911.91;;;4.63;100.00
17593;BME280;8915;51.760;14.300;2023-02-13T03:56:20;102914.69;;;4.68;100.00
17593;BME280;8915;51.760;14.300;2023-02-13T03:59:05;102907.75;;;4.67;100.00
17593;BME280;8915;51.760;14.300;2023-02-13T04:01:48;102908.50;;;4.64;100.00
17593;BME280;8915;51.760;14.300;2023-02-13T04:04:21;102922.31;;;4.65;100.00
17593;BME280;8915;51.760;14.300;2023-02-13T04:06:52;102907.63;;;4.64;100.00
17593;BME280;8915;51.760;14.300;2023-02-13T04:09:21;102907.56;;;4.62;100.00
17593;BME280;8915;51.760;14.300;2023-02-13T04:11:53;102913.56;;;4.61;100.00
17593;BME280;8915;51.760;14.300;2023-02-13T04:14:24;102905.78;;;4.60;100.00
17593;BME280;8915;51.760;14.300;2023-02-13T04:16:57;102910.94;;;4.60;100.00
17593;BME280;8915;51.760;14.300;2023-02-13T04:19:27;102910.94;;;4.60;100.00
17593;BME280;8915;51.760;14.300;2023-02-13T04:21:56;102910.88;;;4.58;100.00
17593;BME280;8915;51.760;14.300;2023-02-13T04:24:24;102917.69;;;4.56;100.00
17593;BME280;8915;51.760;14.300;2023-02-13T04:26:51;102907.31;;;4.54;100.00
17593;BME280;8915;51.760;14.300;2023-02-13T04:29:19;102914.13;;;4.52;100.00
17593;BME280;8915;51.760;14.300;2023-02-13T04:31:45;102914.88;;;4.50;100.00
17593;BME280;8915;51.760;14.300;2023-02-13T04:34:14;102906.22;;;4.48;100.00
17593;BME280;8915;51.760;14.300;2023-02-13T04:36:41;102909.56;;;4.45;100.00
17593;BME280;8915;51.760;14.300;2023-02-13T04:39:07;102917.38;;;4.47;100.00
17593;BME280;8915;51.760;14.300;2023-02-13T04:41:35;102916.53;;;4.48;100.00
17593;BME280;8915;51.760;14.300;2023-02-13T04:44:01;102912.22;;;4.47;100.00
17593;BME280;8915;51.760;14.300;2023-02-13T04:46:28;102916.41;;;4.45;100.00
17593;BME280;8915;51.760;14.300;2023-02-13T04:48:54;102912.84;;;4.41;100.00
17593;BME280;8915;51.760;14.300;2023-02-13T04:51:21;102913.63;;;4.39;100.00
17593;BME280;8915;51.760;14.300;2023-02-13T04:53:47;102910.88;;;4.34;100.00
17593;BME280;8915;51.760;14.300;2023-02-13T04:56:13;102914.19;;;4.30;100.00
17593;BME280;8915;51.760;14.300;2023-02-13T04:58:41;102912.41;;;4.29;100.00
17593;BME280;8915;51.760;14.300;2023-02-13T05:01:11;102909.75;;;4.26;100.00
17593;BME280;8915;51.760;14.300;2023-02-13T05:03:38;102912.25;;;4.24;100.00
17593;BME280;8915;51.760;14.300;2023-02-13T05:06:04;102916.53;;;4.24;100.00
17593;BME280;8915;51.760;14.300;2023-02-13T05:08:31;102915.53;;;4.20;100.00
17593;BME280;8915;51.760;14.300;2023-02-13T05:10:57;102910.22;;;4.15;100.00
17593;BME280;8915;51.760;14.300;2023-02-13T05:13:24;102911.03;;;4.14;100.00
17593;BME280;8915;51.760;14.300;2023-02-13T05:15:51;102908.38;;;4.13;100.00
17593;BME280;8915;51.760;14.300;2023-02-13T05:18:18;102910.03;;;4.11;100.00
17593;BME280;8915;51.760;14.300;2023-02-13T05:20:44;102909.97;;;4.09;100.00
17593;BME280;8915;51.760;14.300;2023-02-13T05:23:31;102914.22;;;4.07;100.00
17593;BME280;8915;51.760;14.300;2023-02-13T05:25:56;102908.19;;;4.07;100.00
17593;BME280;8915;51.760;14.300;2023-02-13T05:28:23;102913.22;;;4.04;100.00
17593;BME280;8915;51.760;14.300;2023-02-13T05:31:08;102917.44;;;4.02;100.00
17593;BME280;8915;51.760;14.300;2023-02-13T05:33:35;102916.47;;;3.98;100.00
17593;BME280;8915;51.760;14.300;2023-02-13T05:36:01;102916.41;;;3.96;100.00
17593;BME280;8915;51.760;14.300;2023-02-13T05:38:28;102925.72;;;3.93;100.00
17593;BME280;8915;51.760;14.300;2023-02-13T05:40:54;102920.44;;;3.90;100.00
17593;BME280;8915;51.760;14.300;2023-02-13T05:43:23;102924.72;;;3.89;100.00
17593;BME280;8915;51.760;14.300;2023-02-13T05:45:49;102928.13;;;3.88;100.00
17593;BME280;8915;51.760;14.300;2023-02-13T05:48:17;102927.25;;;3.88;100.00
17593;BME280;8915;51.760;14.300;2023-02-13T05:50:45;102935.00;;;3.88;100.00
17593;BME280;8915;51.760;14.300;2023-02-13T05:53:12;102937.50;;;3.86;100.00
17593;BME280;8915;51.760;14.300;2023-02-13T05:55:38;102934.00;;;3.84;100.00
17593;BME280;8915;51.760;14.300;2023-02-13T05:58:04;102939.91;;;3.82;100.00
17593;BME280;8915;51.760;14.300;2023-02-13T06:00:32;102939.81;;;3.78;100.00
17593;BME280;8915;51.760;14.300;2023-02-13T06:02:59;102941.47;;;3.78;100.00
17593;BME280;8915;51.760;14.300;2023-02-13T06:05:26;102939.75;;;3.77;100.00
17593;BME280;8915;51.760;14.300;2023-02-13T06:07:53;102942.31;;;3.77;100.00
17593;BME280;8915;51.760;14.300;2023-02-13T06:10:19;102950.88;;;3.76;100.00
17593;BME280;8915;51.760;14.300;2023-02-13T06:12:45;102948.28;;;3.76;100.00
17593;BME280;8915;51.760;14.300;2023-02-13T06:15:12;102945.59;;;3.73;100.00
17593;BME280;8915;51.760;14.300;2023-02-13T06:17:38;102939.50;;;3.71;100.00
17593;BME280;8915;51.760;14.300;2023-02-13T06:20:06;102948.06;;;3.70;100.00
17593;BME280;8915;51.760;14.300;2023-02-13T06:22:34;102948.88;;;3.69;100.00
17593;BME280;8915;51.760;14.300;2023-02-13T06:25:00;102944.59;;;3.69;100.00
17593;BME280;8915;51.760;14.300;2023-02-13T06:27:27;102954.91;;;3.69;100.00
17593;BME280;8915;51.760;14.300;2023-02-13T06:29:53;102949.75;;;3.69;100.00
17593;BME280;8915;51.760;14.300;2023-02-13T06:32:19;102953.28;;;3.71;100.00
17593;BME280;8915;51.760;14.300;2023-02-13T06:34:46;102959.31;;;3.72;100.00
17593;BME280;8915;51.760;14.300;2023-02-13T06:37:14;102963.66;;;3.73;100.00
17593;BME280;8915;51.760;14.300;2023-02-13T06:39:42;102963.66;;;3.73;100.00
17593;BME280;8915;51.760;14.300;2023-02-13T06:42:09;102966.34;;;3.76;100.00
17593;BME280;8915;51.760;14.300;2023-02-13T06:44:35;102976.69;;;3.76;100.00
17593;BME280;8915;51.760;14.300;2023-02-13T06:47:02;102978.44;;;3.77;100.00
17593;BME280;8915;51.760;14.300;2023-02-13T06:49:28;102976.88;;;3.81;100.00
17593;BME280;8915;51.760;14.300;2023-02-13T06:51:55;102981.19;;;3.82;100.00
17593;BME280;8915;51.760;14.300;2023-02-13T06:54:21;102983.03;;;3.84;100.00
17593;BME280;8915;51.760;14.300;2023-02-13T06:56:49;102983.84;;;3.83;100.00
17593;BME280;8915;51.760;14.300;2023-02-13T06:59:15;102988.06;;;3.81;100.00
17593;BME280;8915;51.760;14.300;2023-02-13T07:01:41;102989.72;;;3.79;100.00
17593;BME280;8915;51.760;14.300;2023-02-13T07:04:08;102987.25;;;3.82;100.00
17593;BME280;8915;51.760;14.300;2023-02-13T07:06:34;102991.56;;;3.83;100.00
17593;BME280;8915;51.760;14.300;2023-02-13T07:09:01;102990.84;;;3.86;100.00
17593;BME280;8915;51.760;14.300;2023-02-13T07:11:28;102986.47;;;3.85;100.00
17593;BME280;8915;51.760;14.300;2023-02-13T07:13:56;102991.72;;;3.86;100.00
17593;BME280;8915;51.760;14.300;2023-02-13T07:16:22;102986.53;;;3.86;100.00
17593;BME280;8915;51.760;14.300;2023-02-13T07:18:48;102988.31;;;3.87;100.00
17593;BME280;8915;51.760;14.300;2023-02-13T07:21:15;102991.91;;;3.91;100.00
17593;BME280;8915;51.760;14.300;2023-02-13T07:23:41;102992.00;;;3.94;100.00
17593;BME280;8915;51.760;14.300;2023-02-13T07:26:07;102988.53;;;3.93;100.00
17593;BME280;8915;51.760;14.300;2023-02-13T07:28:35;102993.78;;;3.95;100.00
17593;BME280;8915;51.760;14.300;2023-02-13T07:31:04;102990.38;;;3.96;100.00
17593;BME280;8915;51.760;14.300;2023-02-13T07:33:31;102990.44;;;3.97;100.00
17593;BME280;8915;51.760;14.300;2023-02-13T07:35:57;102987.09;;;4.00;100.00
17593;BME280;8915;51.760;14.300;2023-02-13T07:38:24;102992.31;;;4.02;100.00
17593;BME280;8915;51.760;14.300;2023-02-13T07:40:50;102989.84;;;4.05;100.00
17593;BME280;8915;51.760;14.300;2023-02-13T07:43:16;102993.38;;;4.07;100.00
17593;BME280;8915;51.760;14.300;2023-02-13T07:45:43;102985.75;;;4.10;100.00
17593;BME280;8915;51.760;14.300;2023-02-13T07:48:12;102991.00;;;4.13;100.00
17593;BME280;8915;51.760;14.300;2023-02-13T07:50:38;102990.31;;;4.17;100.00
17593;BME280;8915;51.760;14.300;2023-02-13T07:53:05;102994.72;;;4.20;100.00
17593;BME280;8915;51.760;14.300;2023-02-13T07:55:31;102997.41;;;4.23;100.00
17593;BME280;8915;51.760;14.300;2023-02-13T07:57:58;102989.81;;;4.27;100.00
17593;BME280;8915;51.760;14.300;2023-02-13T08:00:25;102987.50;;;4.33;100.00
17593;BME280;8915;51.760;14.300;2023-02-13T08:02:51;102990.25;;;4.38;100.00
17593;BME280;8915;51.760;14.300;2023-02-13T08:05:19;102995.56;;;4.43;100.00
17593;BME280;8915;51.760;14.300;2023-02-13T08:07:45;102988.00;;;4.47;100.00
17593;BME280;8915;51.760;14.300;2023-02-13T08:10:13;102992.44;;;4.51;100.00
17593;BME280;8915;51.760;14.300;2023-02-13T08:12:57;102994.97;;;4.50;100.00
17593;BME280;8915;51.760;14.300;2023-02-13T08:15:23;102992.56;;;4.54;100.00
17593;BME280;8915;51.760;14.300;2023-02-13T08:17:50;103000.50;;;4.59;100.00
17593;BME280;8915;51.760;14.300;2023-02-13T08:20:16;102997.94;;;4.61;100.00
17593;BME280;8915;51.760;14.300;2023-02-13T08:22:44;103000.72;;;4.65;100.00
17593;BME280;8915;51.760;14.300;2023-02-13T08:25:11;102995.59;;;4.67;100.00
17593;BME280;8915;51.760;14.300;2023-02-13T08:27:38;103005.28;;;4.72;100.00
17593;BME280;8915;51.760;14.300;2023-02-13T08:30:05;103003.34;;;4.67;100.00
17593;BME280;8915;51.760;14.300;2023-02-13T08:32:34;103007.81;;;4.71;100.00
17593;BME280;8915;51.760;14.300;2023-02-13T08:35:01;103007.00;;;4.72;100.00
17593;BME280;8915;51.760;14.300;2023-02-13T08:37:27;103016.53;;;4.74;100.00
17593;BME280;8915;51.760;14.300;2023-02-13T08:39:55;103012.16;;;4.72;100.00
17593;BME280;8915;51.760;14.300;2023-02-13T08:42:21;103008.84;;;4.76;100.00
17593;BME280;8915;51.760;14.300;2023-02-13T08:44:48;103009.16;;;4.84;100.00
17593;BME280;8915;51.760;14.300;2023-02-13T08:47:14;103014.34;;;4.85;100.00
17593;BME280;8915;51.760;14.300;2023-02-13T08:49:40;103016.22;;;4.89;100.00
17593;BME280;8915;51.760;14.300;2023-02-13T08:52:07;103011.72;;;4.84;100.00
17593;BME280;8915;51.760;14.300;2023-02-13T08:54:33;103018.63;;;4.85;100.00
17593;BME280;8915;51.760;14.300;2023-02-13T08:57:02;103015.25;;;4.86;100.00
17593;BME280;8915;51.760;14.300;2023-02-13T08:59:28;103012.75;;;4.89;100.00
17593;BME280;8915;51.760;14.300;2023-02-13T09:01:55;103018.09;;;4.93;100.00
17593;BME280;8915;51.760;14.300;2023-02-13T09:04:21;103014.81;;;4.99;100.00
17593;BME280;8915;51.760;14.300;2023-02-13T09:06:48;103018.56;;;5.07;100.00
17593;BME280;8915;51.760;14.300;2023-02-13T09:09:14;103022.41;;;5.19;100.00
17593;BME280;8915;51.760;14.300;2023-02-13T09:11:41;103013.16;;;5.25;100.00
17593;BME280;8915;51.760;14.300;2023-02-13T09:14:09;103021.13;;;5.31;100.00
17593;BME280;8915;51.760;14.300;2023-02-13T09:16:35;103011.66;;;5.32;100.00
17593;BME280;8915;51.760;14.300;2023-02-13T09:19:01;103016.00;;;5.33;100.00
17593;BME280;8915;51.760;14.300;2023-02-13T09:21:28;103022.22;;;5.38;100.00
17593;BME280;8915;51.760;14.300;2023-02-13T09:23:55;103018.03;;;5.42;100.00
17593;BME280;8915;51.760;14.300;2023-02-13T09:26:22;103024.75;;;5.37;100.00
17593;BME280;8915;51.760;14.300;2023-02-13T09:28:48;103020.41;;;5.36;100.00
17593;BME280;8915;51.760;14.300;2023-02-13T09:31:17;103014.28;;;5.34;100.00
17593;BME280;8915;51.760;14.300;2023-02-13T09:33:46;103017.06;;;5.38;100.00
17593;BME280;8915;51.760;14.300;2023-02-13T09:36:16;103021.38;;;5.39;100.00
17593;BME280;8915;51.760;14.300;2023-02-13T09:38:43;103020.34;;;5.34;100.00
17593;BME280;8915;51.760;14.300;2023-02-13T09:41:13;103018.84;;;5.41;100.00
17593;BME280;8915;51.760;14.300;2023-02-13T09:43:42;103022.41;;;5.44;100.00
17593;BME280;8915;51.760;14.300;2023-02-13T09:46:12;103018.84;;;5.41;100.00
17593;BME280;8915;51.760;14.300;2023-02-13T09:48:43;103018.78;;;5.39;100.00
17593;BME280;8915;51.760;14.300;2023-02-13T09:51:13;103030.00;;;5.40;100.00
17593;BME280;8915;51.760;14.300;2023-02-13T09:53:45;103026.59;;;5.41;100.00
17593;BME280;8915;51.760;14.300;2023-02-13T09:56:15;103033.56;;;5.42;100.00
17593;BME280;8915;51.760;14.300;2023-02-13T09:58:46;103027.47;;;5.41;100.00
17593;BME280;8915;51.760;14.300;2023-02-13T10:01:20;103030.91;;;5.40;100.00
17593;BME280;8915;51.760;14.300;2023-02-13T10:03:56;103030.75;;;5.36;100.00
17593;BME280;8915;51.760;14.300;2023-02-13T10:06:30;103027.41;;;5.38;100.00
17593;BME280;8915;51.760;14.300;2023-02-13T10:09:06;103029.19;;;5.41;100.00
17593;BME280;8915;51.760;14.300;2023-02-13T10:11:58;103031.63;;;5.36;100.00
17593;BME280;8915;51.760;14.300;2023-02-13T10:14:31;103036.16;;;5.43;100.00
17593;BME280;8915;51.760;14.300;2023-02-13T10:17:03;103031.94;;;5.45;100.00
17593;BME280;8915;51.760;14.300;2023-02-13T10:19:36;103025.97;;;5.48;100.00
17593;BME280;8915;51.760;14.300;2023-02-13T10:22:11;103031.22;;;5.49;100.00
17593;BME280;8915;51.760;14.300;2023-02-13T10:24:41;103022.53;;;5.47;100.00
17593;BME280;8915;51.760;14.300;2023-02-13T10:27:18;103026.19;;;5.54;100.00
17593;BME280;8915;51.760;14.300;2023-02-13T10:29:47;103020.44;;;5.63;100.00
17593;BME280;8915;51.760;14.300;2023-02-13T10:32:59;103019.59;;;5.64;100.00
17593;BME280;8915;51.760;14.300;2023-02-13T10:35:51;103002.63;;;5.72;100.00
17593;BME280;8915;51.760;14.300;2023-02-13T10:38:21;103004.63;;;5.81;100.00
17593;BME280;8915;51.760;14.300;2023-02-13T10:41:02;103000.47;;;5.86;100.00
17593;BME280;8915;51.760;14.300;2023-02-13T10:43:37;102999.97;;;5.96;100.00
17593;BME280;8915;51.760;14.300;2023-02-13T10:46:10;103005.41;;;6.05;100.00
17593;BME280;8915;51.760;14.300;2023-02-13T10:48:58;102994.53;;;6.17;100.00
17593;BME280;8915;51.760;14.300;2023-02-13T10:51:35;102994.78;;;6.25;100.00
17593;BME280;8915;51.760;14.300;2023-02-13T10:54:25;102993.28;;;6.33;100.00
17593;BME280;8915;51.760;14.300;2023-02-13T10:57:02;102990.81;;;6.38;100.00
17593;BME280;8915;51.760;14.300;2023-02-13T10:59:53;102985.72;;;6.41;100.00
17593;BME280;8915;51.760;14.300;2023-02-13T11:02:24;102979.69;;;6.42;100.00
17593;BME280;8915;51.760;14.300;2023-02-13T11:04:53;102972.88;;;6.44;100.00
17593;BME280;8915;51.760;14.300;2023-02-13T11:07:24;102972.91;;;6.46;100.00
17593;BME280;8915;51.760;14.300;2023-02-13T11:09:54;102972.97;;;6.49;100.00
17593;BME280;8915;51.760;14.300;2023-02-13T11:12:26;102973.13;;;6.53;100.00
17593;BME280;8915;51.760;14.300;2023-02-13T11:14:54;102965.28;;;6.52;100.00
17593;BME280;8915;51.760;14.300;2023-02-13T11:17:22;102974.03;;;6.55;100.00
17593;BME280;8915;51.760;14.300;2023-02-13T11:19:50;102963.72;;;6.57;100.00
17593;BME280;8915;51.760;14.300;2023-02-13T11:22:29;102962.91;;;6.58;100.00
17593;BME280;8915;51.760;14.300;2023-02-13T11:24:58;102954.34;;;6.62;100.00
17593;BME280;8915;51.760;14.300;2023-02-13T11:27:29;102957.03;;;6.65;100.00
17593;BME280;8915;51.760;14.300;2023-02-13T11:29:58;102964.81;;;6.65;100.00
17593;BME280;8915;51.760;14.300;2023-02-13T11:32:27;102959.63;;;6.65;100.00
17593;BME280;8915;51.760;14.300;2023-02-13T11:34:53;102968.38;;;6.69;100.00
17593;BME280;8915;51.760;14.300;2023-02-13T11:37:24;102960.88;;;6.79;100.00
17593;BME280;8915;51.760;14.300;2023-02-13T11:39:53;102958.47;;;6.87;100.00
17593;BME280;8915;51.760;14.300;2023-02-13T11:42:25;102958.53;;;6.89;100.00
17593;BME280;8915;51.760;14.300;2023-02-13T11:44:55;102963.69;;;6.89;100.00
17593;BME280;8915;51.760;14.300;2023-02-13T11:47:32;102970.66;;;6.90;100.00
17593;BME280;8915;51.760;14.300;2023-02-13T11:49:59;102961.38;;;6.99;100.00
17593;BME280;8915;51.760;14.300;2023-02-13T11:52:30;102963.19;;;7.02;100.00
17593;BME280;8915;51.760;14.300;2023-02-13T11:55:00;102959.72;;;7.01;100.00
17593;BME280;8915;51.760;14.300;2023-02-13T11:57:29;102969.47;;;7.12;100.00
17593;BME280;8915;51.760;14.300;2023-02-13T11:59:56;102959.88;;;7.08;100.00
17593;BME280;8915;51.760;14.300;2023-02-13T12:02:25;102953.97;;;7.13;100.00
17593;BME280;8915;51.760;14.300;2023-02-13T12:04:53;102961.06;;;7.20;100.00
17593;BME280;8915;51.760;14.300;2023-02-13T12:07:22;102952.53;;;7.26;100.00
17593;BME280;8915;51.760;14.300;2023-02-13T12:09:53;102951.72;;;7.27;100.00
17593;BME280;8915;51.760;14.300;2023-02-13T12:12:27;102958.41;;;7.19;100.00
17593;BME280;8915;51.760;14.300;2023-02-13T12:14:55;102954.06;;;7.16;100.00
17593;BME280;8915;51.760;14.300;2023-02-13T12:17:22;102955.72;;;7.14;100.00
17593;BME280;8915;51.760;14.300;2023-02-13T12:19:50;102952.97;;;7.08;100.00
17593;BME280;8915;51.760;14.300;2023-02-13T12:22:31;102949.53;;;7.09;100.00
17593;BME280;8915;51.760;14.300;2023-02-13T12:25:15;102943.63;;;7.15;100.00
17593;BME280;8915;51.760;14.300;2023-02-13T12:27:52;102938.56;;;7.19;100.00
17593;BME280;8915;51.760;14.300;2023-02-13T12:30:35;102929.94;;;7.20;100.00
17593;BME280;8915;51.760;14.300;2023-02-13T12:33:15;102926.38;;;7.17;100.00
17593;BME280;8915;51.760;14.300;2023-02-13T12:35:54;102932.44;;;7.16;100.00
17593;BME280;8915;51.760;14.300;2023-02-13T12:38:41;102930.66;;;7.15;100.00
17593;BME280;8915;51.760;14.300;2023-02-13T12:41:17;102925.47;;;7.15;100.00
17593;BME280;8915;51.760;14.300;2023-02-13T12:44:01;102921.06;;;7.12;100.00
17593;BME280;8915;51.760;14.300;2023-02-13T12:46:34;102920.16;;;7.10;100.00
17593;BME280;8915;51.760;14.300;2023-02-13T12:49:15;102914.06;;;7.08;100.00
17593;BME280;8915;51.760;14.300;2023-02-13T12:51:49;102929.47;;;7.02;100.00
17593;BME280;8915;51.760;14.300;2023-02-13T12:54:37;102933.66;;;6.97;100.00
17593;BME280;8915;51.760;14.300;2023-02-13T12:57:21;102938.81;;;6.95;100.00
17593;BME280;8915;51.760;14.300;2023-02-13T13:00:02;102938.91;;;7.00;100.00
17593;BME280;8915;51.760;14.300;2023-02-13T13:02:58;102946.63;;;6.97;100.00
17593;BME280;8915;51.760;14.300;2023-02-13T13:05:39;102945.69;;;6.93;100.00
17593;BME280;8915;51.760;14.300;2023-02-13T13:08:21;102945.50;;;6.87;100.00
17593;BME280;8915;51.760;14.300;2023-02-13T13:11:01;102945.41;;;6.84;100.00
17593;BME280;8915;51.760;14.300;2023-02-13T13:13:38;102945.38;;;6.81;100.00